createdAt,value
2019-05-06T00:03:39.992Z,93467.20
2019-05-06T00:08:44.631Z,93463.29
2019-05-06T00:13:49.197Z,93463.16
2019-05-06T00:18:54.228Z,93469.82
2019-05-06T00:23:58.913Z,93465.21
2019-05-06T00:29:05.250Z,93464.52
2019-05-06T00:34:09.958Z,93457.45
2019-05-06T00:39:33.684Z,93460.25
2019-05-06T00:44:38.356Z,93455.20
2019-05-06T00:49:43.618Z,93457.38
2019-05-06T00:54:48.259Z,93450.03
2019-05-06T00:59:53.838Z,93447.13
2019-05-06T01:04:58.571Z,93448.84
2019-05-06T01:10:03.772Z,93451.34
2019-05-06T01:15:14.277Z,93450.00
2019-05-06T01:20:18.993Z,93449.70
2019-05-06T01:25:23.847Z,93451.78
2019-05-06T01:30:28.622Z,93446.68
2019-05-06T01:35:35.072Z,93445.34
2019-05-06T01:40:54.688Z,93434.45
2019-05-06T01:45:59.409Z,93448.16
2019-05-06T01:51:04.021Z,93449.17
2019-05-06T01:56:08.564Z,93459.75
2019-05-06T02:01:14.756Z,93465.84
2019-05-06T02:06:19.617Z,93465.84
2019-05-06T02:11:24.285Z,93452.78
2019-05-06T02:16:28.764Z,93456.98
2019-05-06T02:21:35.046Z,93452.55
2019-05-06T02:26:39.593Z,93444.66
2019-05-06T02:31:54.603Z,93456.06
2019-05-06T02:37:05.965Z,93464.70
2019-05-06T02:42:08.777Z,93457.80
2019-05-06T02:47:34.040Z,93453.30
2019-05-06T02:52:37.181Z,93455.66
2019-05-06T02:57:43.989Z,93456.45
2019-05-06T03:02:48.716Z,93456.16
2019-05-06T03:07:57.464Z,93458.32
2019-05-06T03:13:02.987Z,93459.86
2019-05-06T03:18:07.033Z,93449.08
2019-05-06T03:23:15.888Z,93447.00
2019-05-06T03:28:22.550Z,93451.44
2019-05-06T03:33:47.066Z,93457.48
2019-05-06T03:38:33.886Z,93481.62
2019-05-06T03:43:38.439Z,93490.69
2019-05-06T03:48:53.371Z,93481.43
2019-05-06T03:54:00.080Z,93501.17
2019-05-06T03:59:05.219Z,93498.31
2019-05-06T04:04:12.488Z,93506.40
2019-05-06T04:09:16.068Z,93513.08
2019-05-06T04:14:23.866Z,93507.30
2019-05-06T04:19:33.417Z,93510.02
2019-05-06T04:24:45.680Z,93515.91
2019-05-06T04:29:50.312Z,93500.55
2019-05-06T04:34:55.010Z,93498.44
2019-05-06T04:39:59.622Z,93482.81
2019-05-06T04:45:05.009Z,93491.02
2019-05-06T04:50:12.927Z,93479.41
2019-05-06T04:55:16.476Z,93497.95
2019-05-06T05:00:23.388Z,93490.91
2019-05-06T05:05:32.836Z,93488.22
2019-05-06T05:10:43.140Z,93494.39
2019-05-06T05:16:04.824Z,93505.16
2019-05-06T05:21:11.893Z,93510.59
2019-05-06T05:26:16.650Z,93516.66
2019-05-06T05:31:23.067Z,93512.63
2019-05-06T05:36:27.740Z,93500.37
2019-05-06T05:41:33.137Z,93503.03
2019-05-06T05:46:38.853Z,93491.89
2019-05-06T05:51:43.594Z,93496.84
2019-05-06T05:56:48.680Z,93496.06
2019-05-06T06:01:55.604Z,93500.02
2019-05-06T06:07:02.497Z,93499.67
2019-05-06T06:12:07.416Z,93485.83
2019-05-06T06:17:29.003Z,93492.61
2019-05-06T06:22:33.857Z,93503.52
2019-05-06T06:27:51.854Z,93511.67
2019-05-06T06:32:56.000Z,93524.25
2019-05-06T06:38:08.221Z,93511.36
2019-05-06T06:43:14.498Z,93511.36
2019-05-06T06:48:19.232Z,93509.13
2019-05-06T06:53:23.833Z,93500.01
2019-05-06T06:58:32.178Z,93506.79
2019-05-06T07:03:43.203Z,93502.66
2019-05-06T07:08:47.957Z,93496.02
2019-05-06T07:13:54.253Z,93500.02
2019-05-06T07:18:58.829Z,93503.47
2019-05-06T07:24:03.600Z,93511.94
2019-05-06T07:29:16.817Z,93503.16
2019-05-06T07:34:14.474Z,93500.62
2019-05-06T07:39:19.047Z,93496.21
2019-05-06T07:44:42.360Z,93491.47
2019-05-06T07:49:46.964Z,93497.13
2019-05-06T07:54:57.476Z,93497.38
2019-05-06T08:00:03.350Z,93498.20
2019-05-06T08:05:08.425Z,93485.82
2019-05-06T08:10:13.672Z,93497.21
2019-05-06T08:15:18.312Z,93497.70
2019-05-06T08:20:24.857Z,93512.58
2019-05-06T08:25:32.907Z,93493.48
2019-05-06T08:30:37.571Z,93540.70
2019-05-06T08:35:42.688Z,93557.30
2019-05-06T08:40:49.059Z,93567.00
2019-05-06T08:45:53.567Z,93569.72
2019-05-06T08:51:03.028Z,93561.05
2019-05-06T08:56:08.956Z,93581.89
2019-05-06T09:01:16.358Z,93593.86
2019-05-06T09:06:27.574Z,93585.05
2019-05-06T09:11:32.136Z,93587.25
2019-05-06T09:16:34.099Z,93593.83
2019-05-06T09:21:38.742Z,93571.19
2019-05-06T09:26:47.748Z,93589.94
2019-05-06T09:31:54.034Z,93600.14
2019-05-06T09:37:16.277Z,93615.52
2019-05-06T09:42:23.053Z,93598.02
2019-05-06T09:47:33.019Z,93593.14
2019-05-06T09:52:37.836Z,93573.83
2019-05-06T09:58:00.069Z,93575.50
2019-05-06T10:03:05.348Z,93575.16
2019-05-06T10:08:12.247Z,93584.27
2019-05-06T10:13:16.259Z,93565.76
2019-05-06T10:18:22.655Z,93568.25
2019-05-06T10:23:27.436Z,93575.91
2019-05-06T10:28:34.030Z,93564.80
2019-05-06T10:33:40.283Z,93570.80
2019-05-06T10:38:55.133Z,93571.03
2019-05-06T10:44:17.552Z,93566.95
2019-05-06T10:49:23.270Z,93566.38
2019-05-06T10:54:27.934Z,93548.97
2019-05-06T10:59:33.383Z,93537.78
2019-05-06T11:04:38.383Z,93511.29
2019-05-06T11:09:43.067Z,93543.36
2019-05-06T11:14:48.729Z,93550.49
2019-05-06T11:19:53.459Z,93566.77
2019-05-06T11:24:58.185Z,93586.52
2019-05-06T11:30:04.457Z,93582.13
2019-05-06T11:35:17.026Z,93595.42
2019-05-06T11:40:23.489Z,93595.30
2019-05-06T11:45:28.213Z,93602.22
2019-05-06T11:50:33.419Z,93604.14
2019-05-06T11:55:38.946Z,93592.27
2019-05-06T12:00:48.769Z,93558.03
2019-05-06T12:05:53.484Z,93556.77
2019-05-06T12:10:58.214Z,93537.03
2019-05-06T12:16:03.075Z,93491.13
2019-05-06T12:21:11.389Z,93494.98
2019-05-06T12:26:16.091Z,93525.09
2019-05-06T12:31:23.486Z,93538.50
2019-05-06T12:36:28.384Z,93554.85
2019-05-06T12:41:34.747Z,93555.84
2019-05-06T12:46:43.850Z,93557.94
2019-05-06T12:51:48.743Z,93557.61
2019-05-06T12:56:55.123Z,93551.28
2019-05-06T13:02:02.599Z,93530.81
2019-05-06T13:07:08.004Z,93521.58
2019-05-06T13:12:14.388Z,93521.21
2019-05-06T13:17:22.763Z,93520.05
2019-05-06T13:22:37.488Z,93516.84
2019-05-06T13:27:42.982Z,93513.38
2019-05-06T13:32:49.361Z,93503.36
2019-05-06T13:37:53.956Z,93485.59
2019-05-06T13:43:13.062Z,93470.83
2019-05-06T13:48:22.970Z,93454.39
2019-05-06T13:53:39.048Z,93468.27
2019-05-06T13:58:34.294Z,93468.27
2019-05-06T14:03:38.994Z,93467.78
2019-05-06T14:08:43.633Z,93468.37
2019-05-06T14:13:48.125Z,93463.05
2019-05-06T14:18:54.791Z,93465.57
2019-05-06T14:23:59.361Z,93462.91
2019-05-06T14:29:08.826Z,93462.69
2019-05-06T14:34:14.349Z,93460.09
2019-05-06T14:39:23.654Z,93459.33
2019-05-06T14:44:26.933Z,93462.61
2019-05-06T14:49:32.581Z,93459.67
2019-05-06T14:54:39.126Z,93458.59
2019-05-06T14:59:43.682Z,93457.45
2019-05-06T15:04:48.313Z,93463.55
2019-05-06T15:10:02.499Z,93478.72
2019-05-06T15:14:59.193Z,93487.75
2019-05-06T15:20:05.039Z,93504.48
2019-05-06T15:25:09.731Z,93509.05
2019-05-06T15:30:34.074Z,93523.73
2019-05-06T15:35:46.193Z,93543.72
2019-05-06T15:40:52.529Z,93557.30
2019-05-06T15:45:57.546Z,93568.29
2019-05-06T15:51:02.233Z,93566.81
2019-05-06T15:56:06.921Z,93575.46
2019-05-06T16:01:14.286Z,93573.16
2019-05-06T16:06:17.980Z,93586.74
2019-05-06T16:11:22.630Z,93600.75
2019-05-06T16:16:27.295Z,93618.12
2019-05-06T16:21:33.450Z,93629.39
2019-05-06T16:26:38.248Z,93643.26
2019-05-06T16:31:42.898Z,93659.10
2019-05-06T16:36:49.104Z,93670.79
2019-05-06T16:41:53.791Z,93667.08
2019-05-06T16:47:00.072Z,93654.69
2019-05-06T16:52:04.735Z,93648.73
2019-05-06T16:57:13.586Z,93640.77
2019-05-06T17:02:19.738Z,93649.39
2019-05-06T17:07:24.872Z,93669.20
2019-05-06T17:12:31.805Z,93657.28
2019-05-06T17:17:43.431Z,93665.81
2019-05-06T17:22:43.795Z,93661.66
2019-05-06T17:27:49.779Z,93660.96
2019-05-06T17:33:13.484Z,93652.56
2019-05-06T17:38:19.659Z,93641.45
2019-05-06T17:43:24.266Z,93657.89
2019-05-06T17:48:43.997Z,93659.19
2019-05-06T17:53:52.249Z,93642.25
2019-05-06T17:58:56.712Z,93637.95
2019-05-06T18:04:02.219Z,93632.17
2019-05-06T18:09:09.124Z,93638.11
2019-05-06T18:14:17.097Z,93630.28
2019-05-06T18:19:22.354Z,93640.07
2019-05-06T18:24:26.910Z,93644.05
2019-05-06T18:29:33.475Z,93652.34
2019-05-06T18:34:38.705Z,93666.94
2019-05-06T18:39:43.212Z,93679.20
2019-05-06T18:44:47.866Z,93685.01
2019-05-06T18:49:54.858Z,93687.46
2019-05-06T18:54:59.636Z,93688.63
2019-05-06T19:00:07.600Z,93710.54
2019-05-06T19:05:14.242Z,93709.10
2019-05-06T19:10:23.560Z,93719.69
2019-05-06T19:15:29.165Z,93716.08
2019-05-06T19:20:34.043Z,93711.42
2019-05-06T19:25:42.692Z,93724.84
2019-05-06T19:30:46.663Z,93725.48
2019-05-06T19:35:52.272Z,93715.83
2019-05-06T19:40:56.972Z,93725.91
2019-05-06T19:46:02.619Z,93729.70
2019-05-06T19:51:08.996Z,93728.70
2019-05-06T19:56:13.529Z,93733.84
2019-05-06T20:01:18.213Z,93738.80
2019-05-06T20:06:24.513Z,93748.08
2019-05-06T20:11:32.974Z,93763.75
2019-05-06T20:16:37.492Z,93764.45
2019-05-06T20:21:42.574Z,93775.02
2019-05-06T20:27:10.295Z,93778.38
2019-05-06T20:32:16.022Z,93779.88
2019-05-06T20:37:22.285Z,93784.26
2019-05-06T20:42:28.507Z,93790.88
2019-05-06T20:48:12.701Z,93784.22
2019-05-06T20:53:36.135Z,93798.05
2019-05-06T20:58:47.306Z,93798.09
2019-05-06T21:03:52.908Z,93797.92
2019-05-06T21:08:57.685Z,93812.31
2019-05-06T21:14:02.399Z,93816.09
2019-05-06T21:19:12.421Z,93818.41
2019-05-06T21:24:37.141Z,93825.20
2019-05-06T21:29:47.270Z,93817.08
2019-05-06T21:34:53.542Z,93822.55
2019-05-06T21:39:59.159Z,93829.17
2019-05-06T21:45:03.953Z,93824.53
2019-05-06T21:50:09.042Z,93819.88
2019-05-06T21:55:15.307Z,93826.35
2019-05-06T22:00:23.424Z,93833.42
2019-05-06T22:05:49.732Z,93843.48
2019-05-06T22:10:54.368Z,93846.42
2019-05-06T22:15:59.069Z,93849.11
2019-05-06T22:21:11.562Z,93857.50
2019-05-06T22:26:16.460Z,93857.29
2019-05-06T22:31:23.831Z,93865.09
2019-05-06T22:36:27.751Z,93865.36
2019-05-06T22:41:32.672Z,93866.88
2019-05-06T22:46:38.574Z,93883.25
2019-05-06T22:51:43.184Z,93877.77
2019-05-06T22:56:48.197Z,93875.17
2019-05-06T23:02:10.494Z,93880.05
2019-05-06T23:07:15.268Z,93879.98
2019-05-06T23:12:20.461Z,93890.44
2019-05-06T23:17:25.189Z,93892.45
2019-05-06T23:22:31.574Z,93895.44
2019-05-06T23:27:36.210Z,93897.89
2019-05-06T23:32:42.240Z,93915.14
2019-05-06T23:38:23.087Z,93921.45
2019-05-06T23:44:03.496Z,93925.19
2019-05-06T23:49:43.992Z,93925.48
2019-05-06T23:55:24.448Z,93939.58
